sensor_id;sensor_type;location;lat;lon;timestamp;P1;durP1;ratioP1;P2;durP2;ratioP2
58017;SDS011;43810;50.860;19.226;2023-06-26T00:02:22;11.02;;;6.78;;
58017;SDS011;43810;50.860;19.226;2023-06-26T00:04:47;10.40;;;6.65;;
58017;SDS011;43810;50.860;19.226;2023-06-26T00:07:13;15.68;;;8.25;;
58017;SDS011;43810;50.860;19.226;2023-06-26T00:09:39;13.00;;;7.78;;
58017;SDS011;43810;50.860;19.226;2023-06-26T00:12:05;10.93;;;6.75;;
58017;SDS011;43810;50.860;19.226;2023-06-26T00:14:31;17.23;;;7.40;;
58017;SDS011;43810;50.860;19.226;2023-06-26T00:16:57;13.73;;;7.68;;
58017;SDS011;43810;50.860;19.226;2023-06-26T00:19:23;11.07;;;7.03;;
58017;SDS011;43810;50.860;19.226;2023-06-26T00:21:49;13.52;;;6.93;;
58017;SDS011;43810;50.860;19.226;2023-06-26T00:24:15;11.63;;;7.07;;
58017;SDS011;43810;50.860;19.226;2023-06-26T00:26:40;13.35;;;7.68;;
58017;SDS011;43810;50.860;19.226;2023-06-26T00:29:06;13.18;;;7.95;;
58017;SDS011;43810;50.860;19.226;2023-06-26T00:31:32;12.15;;;7.60;;
58017;SDS011;43810;50.860;19.226;2023-06-26T00:33:58;13.65;;;8.02;;
58017;SDS011;43810;50.860;19.226;2023-06-26T00:36:24;12.15;;;7.07;;
58017;SDS011;43810;50.860;19.226;2023-06-26T00:38:52;12.40;;;6.38;;
58017;SDS011;43810;50.860;19.226;2023-06-26T00:41:17;11.73;;;6.60;;
58017;SDS011;43810;50.860;19.226;2023-06-26T00:43:45;10.25;;;6.78;;
58017;SDS011;43810;50.860;19.226;2023-06-26T00:46:12;11.82;;;6.43;;
58017;SDS011;43810;50.860;19.226;2023-06-26T00:48:39;8.77;;;5.70;;
58017;SDS011;43810;50.860;19.226;2023-06-26T00:51:08;10.15;;;5.50;;
58017;SDS011;43810;50.860;19.226;2023-06-26T00:53:34;12.07;;;6.00;;
58017;SDS011;43810;50.860;19.226;2023-06-26T00:56:00;12.32;;;5.80;;
58017;SDS011;43810;50.860;19.226;2023-06-26T00:58:27;10.68;;;5.72;;
58017;SDS011;43810;50.860;19.226;2023-06-26T01:00:53;12.75;;;6.55;;
58017;SDS011;43810;50.860;19.226;2023-06-26T01:03:21;12.50;;;5.97;;
58017;SDS011;43810;50.860;19.226;2023-06-26T01:05:48;8.57;;;5.75;;
58017;SDS011;43810;50.860;19.226;2023-06-26T01:08:16;11.43;;;6.18;;
58017;SDS011;43810;50.860;19.226;2023-06-26T01:10:43;13.18;;;7.15;;
58017;SDS011;43810;50.860;19.226;2023-06-26T01:13:09;20.45;;;8.63;;
58017;SDS011;43810;50.860;19.226;2023-06-26T01:15:36;16.25;;;7.53;;
58017;SDS011;43810;50.860;19.226;2023-06-26T01:18:02;13.13;;;6.78;;
58017;SDS011;43810;50.860;19.226;2023-06-26T01:20:32;14.98;;;7.45;;
58017;SDS011;43810;50.860;19.226;2023-06-26T01:23:07;13.07;;;6.65;;
58017;SDS011;43810;50.860;19.226;2023-06-26T01:28:41;14.13;;;7.00;;
58017;SDS011;43810;50.860;19.226;2023-06-26T01:31:08;11.05;;;6.22;;
58017;SDS011;43810;50.860;19.226;2023-06-26T01:33:36;11.95;;;7.00;;
58017;SDS011;43810;50.860;19.226;2023-06-26T01:36:02;13.27;;;6.90;;
58017;SDS011;43810;50.860;19.226;2023-06-26T01:38:29;9.40;;;5.72;;
58017;SDS011;43810;50.860;19.226;2023-06-26T01:40:54;15.35;;;6.90;;
58017;SDS011;43810;50.860;19.226;2023-06-26T01:43:33;10.50;;;6.07;;
58017;SDS011;43810;50.860;19.226;2023-06-26T01:46:22;12.00;;;6.60;;
58017;SDS011;43810;50.860;19.226;2023-06-26T01:49:06;11.25;;;6.68;;
58017;SDS011;43810;50.860;19.226;2023-06-26T01:51:35;13.40;;;7.32;;
58017;SDS011;43810;50.860;19.226;2023-06-26T01:54:08;13.93;;;6.85;;
58017;SDS011;43810;50.860;19.226;2023-06-26T01:56:39;14.27;;;8.30;;
58017;SDS011;43810;50.860;19.226;2023-06-26T01:59:05;13.68;;;8.15;;
58017;SDS011;43810;50.860;19.226;2023-06-26T02:01:33;14.55;;;7.10;;
58017;SDS011;43810;50.860;19.226;2023-06-26T02:03:59;13.88;;;7.60;;
58017;SDS011;43810;50.860;19.226;2023-06-26T02:06:25;12.15;;;6.65;;
58017;SDS011;43810;50.860;19.226;2023-06-26T02:08:51;17.70;;;7.88;;
58017;SDS011;43810;50.860;19.226;2023-06-26T02:11:16;17.88;;;8.85;;
58017;SDS011;43810;50.860;19.226;2023-06-26T02:13:42;16.90;;;8.98;;
58017;SDS011;43810;50.860;19.226;2023-06-26T02:16:08;14.73;;;8.25;;
58017;SDS011;43810;50.860;19.226;2023-06-26T02:18:34;22.35;;;9.27;;
58017;SDS011;43810;50.860;19.226;2023-06-26T02:21:00;18.95;;;9.02;;
58017;SDS011;43810;50.860;19.226;2023-06-26T02:23:29;15.95;;;8.73;;
58017;SDS011;43810;50.860;19.226;2023-06-26T02:25:54;17.48;;;8.43;;
58017;SDS011;43810;50.860;19.226;2023-06-26T02:28:20;16.23;;;8.73;;
58017;SDS011;43810;50.860;19.226;2023-06-26T02:30:46;15.30;;;7.95;;
58017;SDS011;43810;50.860;19.226;2023-06-26T02:33:12;18.85;;;8.38;;
58017;SDS011;43810;50.860;19.226;2023-06-26T02:35:37;15.02;;;7.03;;
58017;SDS011;43810;50.860;19.226;2023-06-26T02:38:03;19.17;;;9.25;;
58017;SDS011;43810;50.860;19.226;2023-06-26T02:40:29;23.77;;;9.77;;
58017;SDS011;43810;50.860;19.226;2023-06-26T02:42:55;18.17;;;9.85;;
58017;SDS011;43810;50.860;19.226;2023-06-26T02:45:21;23.13;;;10.77;;
58017;SDS011;43810;50.860;19.226;2023-06-26T02:47:47;26.02;;;11.90;;
58017;SDS011;43810;50.860;19.226;2023-06-26T02:50:12;28.65;;;11.95;;
58017;SDS011;43810;50.860;19.226;2023-06-26T02:52:39;23.27;;;10.38;;
58017;SDS011;43810;50.860;19.226;2023-06-26T02:55:05;28.70;;;12.00;;
58017;SDS011;43810;50.860;19.226;2023-06-26T02:57:31;29.60;;;11.52;;
58017;SDS011;43810;50.860;19.226;2023-06-26T02:59:56;25.90;;;12.07;;
58017;SDS011;43810;50.860;19.226;2023-06-26T03:02:22;31.00;;;11.88;;
58017;SDS011;43810;50.860;19.226;2023-06-26T03:04:48;25.55;;;12.55;;
58017;SDS011;43810;50.860;19.226;2023-06-26T03:07:15;30.42;;;13.15;;
58017;SDS011;43810;50.860;19.226;2023-06-26T03:09:41;34.97;;;13.43;;
58017;SDS011;43810;50.860;19.226;2023-06-26T03:12:07;41.10;;;15.75;;
58017;SDS011;43810;50.860;19.226;2023-06-26T03:14:34;35.25;;;13.40;;
58017;SDS011;43810;50.860;19.226;2023-06-26T03:17:00;36.45;;;15.25;;
58017;SDS011;43810;50.860;19.226;2023-06-26T03:19:29;41.13;;;15.75;;
58017;SDS011;43810;50.860;19.226;2023-06-26T03:21:55;46.05;;;17.20;;
58017;SDS011;43810;50.860;19.226;2023-06-26T03:24:21;46.75;;;19.27;;
58017;SDS011;43810;50.860;19.226;2023-06-26T03:26:46;46.90;;;18.67;;
58017;SDS011;43810;50.860;19.226;2023-06-26T03:29:12;44.78;;;17.10;;
58017;SDS011;43810;50.860;19.226;2023-06-26T03:31:39;38.50;;;15.75;;
58017;SDS011;43810;50.860;19.226;2023-06-26T03:34:07;37.25;;;15.07;;
58017;SDS011;43810;50.860;19.226;2023-06-26T03:36:37;39.35;;;14.55;;
58017;SDS011;43810;50.860;19.226;2023-06-26T03:39:02;35.28;;;14.60;;
58017;SDS011;43810;50.860;19.226;2023-06-26T03:41:30;30.75;;;14.07;;
58017;SDS011;43810;50.860;19.226;2023-06-26T03:43:55;40.35;;;14.98;;
58017;SDS011;43810;50.860;19.226;2023-06-26T03:46:22;35.17;;;13.77;;
58017;SDS011;43810;50.860;19.226;2023-06-26T03:48:48;27.25;;;13.15;;
58017;SDS011;43810;50.860;19.226;2023-06-26T03:51:14;29.33;;;13.68;;
58017;SDS011;43810;50.860;19.226;2023-06-26T03:53:40;26.63;;;12.25;;
58017;SDS011;43810;50.860;19.226;2023-06-26T03:56:06;28.30;;;12.35;;
58017;SDS011;43810;50.860;19.226;2023-06-26T03:58:32;29.73;;;13.57;;
58017;SDS011;43810;50.860;19.226;2023-06-26T04:01:00;24.42;;;12.52;;
58017;SDS011;43810;50.860;19.226;2023-06-26T04:03:29;26.98;;;11.30;;
58017;SDS011;43810;50.860;19.226;2023-06-26T04:05:59;30.55;;;11.65;;
58017;SDS011;43810;50.860;19.226;2023-06-26T04:08:32;27.63;;;12.13;;
58017;SDS011;43810;50.860;19.226;2023-06-26T04:10:58;24.60;;;12.18;;
58017;SDS011;43810;50.860;19.226;2023-06-26T04:13:24;29.17;;;11.32;;
58017;SDS011;43810;50.860;19.226;2023-06-26T04:15:50;22.65;;;11.13;;
58017;SDS011;43810;50.860;19.226;2023-06-26T04:18:16;22.38;;;11.68;;
58017;SDS011;43810;50.860;19.226;2023-06-26T04:23:37;26.45;;;10.30;;
58017;SDS011;43810;50.860;19.226;2023-06-26T04:26:04;23.10;;;10.40;;
58017;SDS011;43810;50.860;19.226;2023-06-26T04:28:31;26.63;;;9.82;;
58017;SDS011;43810;50.860;19.226;2023-06-26T04:30:57;26.17;;;10.65;;
58017;SDS011;43810;50.860;19.226;2023-06-26T04:33:24;19.35;;;10.15;;
58017;SDS011;43810;50.860;19.226;2023-06-26T04:35:51;20.38;;;10.00;;
58017;SDS011;43810;50.860;19.226;2023-06-26T04:38:20;20.90;;;10.02;;
58017;SDS011;43810;50.860;19.226;2023-06-26T04:40:47;20.05;;;9.55;;
58017;SDS011;43810;50.860;19.226;2023-06-26T04:43:13;12.63;;;7.93;;
58017;SDS011;43810;50.860;19.226;2023-06-26T04:45:40;11.75;;;7.20;;
58017;SDS011;43810;50.860;19.226;2023-06-26T04:48:06;10.02;;;6.00;;
58017;SDS011;43810;50.860;19.226;2023-06-26T04:50:32;12.77;;;6.78;;
58017;SDS011;43810;50.860;19.226;2023-06-26T04:52:58;15.88;;;7.00;;
58017;SDS011;43810;50.860;19.226;2023-06-26T04:55:25;8.48;;;6.18;;
58017;SDS011;43810;50.860;19.226;2023-06-26T04:57:51;11.57;;;6.43;;
58017;SDS011;43810;50.860;19.226;2023-06-26T05:00:17;13.80;;;8.18;;
58017;SDS011;43810;50.860;19.226;2023-06-26T05:02:43;17.08;;;8.00;;
58017;SDS011;43810;50.860;19.226;2023-06-26T05:05:10;12.70;;;6.32;;
58017;SDS011;43810;50.860;19.226;2023-06-26T05:07:35;12.65;;;5.78;;
58017;SDS011;43810;50.860;19.226;2023-06-26T05:10:02;11.38;;;6.38;;
58017;SDS011;43810;50.860;19.226;2023-06-26T05:12:28;13.55;;;6.68;;
58017;SDS011;43810;50.860;19.226;2023-06-26T05:14:54;10.32;;;6.18;;
58017;SDS011;43810;50.860;19.226;2023-06-26T05:17:19;12.32;;;6.35;;
58017;SDS011;43810;50.860;19.226;2023-06-26T05:19:46;9.45;;;5.88;;
58017;SDS011;43810;50.860;19.226;2023-06-26T05:22:12;7.93;;;5.22;;
58017;SDS011;43810;50.860;19.226;2023-06-26T05:24:39;10.80;;;6.13;;
58017;SDS011;43810;50.860;19.226;2023-06-26T05:27:07;9.50;;;5.38;;
58017;SDS011;43810;50.860;19.226;2023-06-26T05:29:44;12.60;;;5.90;;
58017;SDS011;43810;50.860;19.226;2023-06-26T05:32:11;9.57;;;6.03;;
58017;SDS011;43810;50.860;19.226;2023-06-26T05:34:41;9.25;;;5.93;;
58017;SDS011;43810;50.860;19.226;2023-06-26T05:37:07;11.77;;;6.13;;
58017;SDS011;43810;50.860;19.226;2023-06-26T05:39:34;10.50;;;6.22;;
58017;SDS011;43810;50.860;19.226;2023-06-26T05:42:00;9.70;;;6.28;;
58017;SDS011;43810;50.860;19.226;2023-06-26T05:44:26;10.02;;;6.65;;
58017;SDS011;43810;50.860;19.226;2023-06-26T05:46:51;11.00;;;5.63;;
58017;SDS011;43810;50.860;19.226;2023-06-26T05:49:17;14.60;;;7.20;;
58017;SDS011;43810;50.860;19.226;2023-06-26T05:51:43;9.43;;;6.13;;
58017;SDS011;43810;50.860;19.226;2023-06-26T05:54:12;9.80;;;6.50;;
58017;SDS011;43810;50.860;19.226;2023-06-26T05:56:39;10.60;;;6.32;;
58017;SDS011;43810;50.860;19.226;2023-06-26T05:59:05;11.90;;;6.43;;
58017;SDS011;43810;50.860;19.226;2023-06-26T06:01:32;14.68;;;6.43;;
58017;SDS011;43810;50.860;19.226;2023-06-26T06:03:59;10.23;;;6.72;;
58017;SDS011;43810;50.860;19.226;2023-06-26T06:06:24;10.75;;;6.03;;
58017;SDS011;43810;50.860;19.226;2023-06-26T06:08:50;12.15;;;6.25;;
58017;SDS011;43810;50.860;19.226;2023-06-26T06:11:16;9.38;;;5.90;;
58017;SDS011;43810;50.860;19.226;2023-06-26T06:13:42;9.45;;;5.45;;
58017;SDS011;43810;50.860;19.226;2023-06-26T06:16:08;7.88;;;5.22;;
58017;SDS011;43810;50.860;19.226;2023-06-26T06:18:34;9.13;;;5.50;;
58017;SDS011;43810;50.860;19.226;2023-06-26T06:20:59;6.70;;;4.47;;
58017;SDS011;43810;50.860;19.226;2023-06-26T06:23:25;10.23;;;5.18;;
58017;SDS011;43810;50.860;19.226;2023-06-26T06:25:52;8.30;;;5.63;;
58017;SDS011;43810;50.860;19.226;2023-06-26T06:28:18;9.70;;;5.78;;
58017;SDS011;43810;50.860;19.226;2023-06-26T06:30:44;8.85;;;5.32;;
58017;SDS011;43810;50.860;19.226;2023-06-26T06:33:10;9.35;;;5.53;;
58017;SDS011;43810;50.860;19.226;2023-06-26T06:35:35;7.07;;;4.55;;
58017;SDS011;43810;50.860;19.226;2023-06-26T06:38:01;7.00;;;4.88;;
58017;SDS011;43810;50.860;19.226;2023-06-26T06:40:27;5.68;;;4.10;;
58017;SDS011;43810;50.860;19.226;2023-06-26T06:42:53;7.30;;;4.30;;
58017;SDS011;43810;50.860;19.226;2023-06-26T06:45:19;6.30;;;4.18;;
58017;SDS011;43810;50.860;19.226;2023-06-26T06:47:45;5.90;;;4.28;;
58017;SDS011;43810;50.860;19.226;2023-06-26T06:50:11;6.80;;;4.30;;
58017;SDS011;43810;50.860;19.226;2023-06-26T06:52:37;6.13;;;4.15;;
58017;SDS011;43810;50.860;19.226;2023-06-26T06:55:05;4.82;;;3.97;;
58017;SDS011;43810;50.860;19.226;2023-06-26T06:57:38;8.05;;;4.10;;
58017;SDS011;43810;50.860;19.226;2023-06-26T07:00:09;6.68;;;3.92;;
58017;SDS011;43810;50.860;19.226;2023-06-26T07:02:41;7.63;;;4.30;;
58017;SDS011;43810;50.860;19.226;2023-06-26T07:05:08;7.05;;;4.63;;
58017;SDS011;43810;50.860;19.226;2023-06-26T07:07:35;5.47;;;4.15;;
58017;SDS011;43810;50.860;19.226;2023-06-26T07:10:02;4.45;;;3.72;;
58017;SDS011;43810;50.860;19.226;2023-06-26T07:12:30;7.80;;;4.53;;
58017;SDS011;43810;50.860;19.226;2023-06-26T07:14:56;6.78;;;4.50;;
58017;SDS011;43810;50.860;19.226;2023-06-26T07:17:23;7.38;;;4.30;;
58017;SDS011;43810;50.860;19.226;2023-06-26T07:19:49;5.72;;;3.85;;
58017;SDS011;43810;50.860;19.226;2023-06-26T07:22:15;7.32;;;4.53;;
58017;SDS011;43810;50.860;19.226;2023-06-26T07:24:41;6.85;;;4.47;;
58017;SDS011;43810;50.860;19.226;2023-06-26T07:27:07;9.13;;;4.15;;
58017;SDS011;43810;50.860;19.226;2023-06-26T07:29:33;12.85;;;4.45;;
58017;SDS011;43810;50.860;19.226;2023-06-26T07:31:59;6.95;;;4.38;;
58017;SDS011;43810;50.860;19.226;2023-06-26T07:34:24;6.78;;;4.13;;
58017;SDS011;43810;50.860;19.226;2023-06-26T07:36:50;7.05;;;4.53;;
58017;SDS011;43810;50.860;19.226;2023-06-26T07:39:16;6.15;;;4.32;;
58017;SDS011;43810;50.860;19.226;2023-06-26T07:41:42;5.38;;;3.95;;
58017;SDS011;43810;50.860;19.226;2023-06-26T07:44:07;4.63;;;3.67;;
58017;SDS011;43810;50.860;19.226;2023-06-26T07:46:33;6.18;;;3.85;;
58017;SDS011;43810;50.860;19.226;2023-06-26T07:48:59;6.05;;;4.43;;
58017;SDS011;43810;50.860;19.226;2023-06-26T07:51:25;6.03;;;4.00;;
58017;SDS011;43810;50.860;19.226;2023-06-26T07:53:51;7.47;;;4.28;;
58017;SDS011;43810;50.860;19.226;2023-06-26T07:56:16;5.47;;;4.40;;
58017;SDS011;43810;50.860;19.226;2023-06-26T07:58:42;6.53;;;4.18;;
58017;SDS011;43810;50.860;19.226;2023-06-26T08:01:08;6.22;;;3.47;;
58017;SDS011;43810;50.860;19.226;2023-06-26T08:03:34;5.38;;;4.00;;
58017;SDS011;43810;50.860;19.226;2023-06-26T08:05:59;8.07;;;4.40;;
58017;SDS011;43810;50.860;19.226;2023-06-26T08:08:25;5.70;;;4.88;;
58017;SDS011;43810;50.860;19.226;2023-06-26T08:10:51;5.72;;;4.18;;
58017;SDS011;43810;50.860;19.226;2023-06-26T08:13:18;5.22;;;4.40;;
58017;SDS011;43810;50.860;19.226;2023-06-26T08:15:43;7.53;;;3.85;;
58017;SDS011;43810;50.860;19.226;2023-06-26T08:18:09;6.45;;;4.07;;
58017;SDS011;43810;50.860;19.226;2023-06-26T08:20:35;6.35;;;3.88;;
58017;SDS011;43810;50.860;19.226;2023-06-26T08:23:03;7.38;;;4.30;;
58017;SDS011;43810;50.860;19.226;2023-06-26T08:25:29;8.25;;;3.97;;
58017;SDS011;43810;50.860;19.226;2023-06-26T08:27:55;7.45;;;4.40;;
58017;SDS011;43810;50.860;19.226;2023-06-26T08:30:21;5.75;;;3.83;;
58017;SDS011;43810;50.860;19.226;2023-06-26T08:32:47;4.95;;;3.85;;
58017;SDS011;43810;50.860;19.226;2023-06-26T08:35:13;6.97;;;3.88;;
58017;SDS011;43810;50.860;19.226;2023-06-26T08:37:39;6.47;;;4.28;;
58017;SDS011;43810;50.860;19.226;2023-06-26T08:40:06;7.43;;;4.55;;
58017;SDS011;43810;50.860;19.226;2023-06-26T08:42:34;5.75;;;3.85;;
58017;SDS011;43810;50.860;19.226;2023-06-26T08:45:00;4.80;;;3.50;;
58017;SDS011;43810;50.860;19.226;2023-06-26T08:47:26;4.65;;;3.63;;
58017;SDS011;43810;50.860;19.226;2023-06-26T08:52:33;6.10;;;3.55;;
58017;SDS011;43810;50.860;19.226;2023-06-26T08:55:02;4.72;;;3.58;;
58017;SDS011;43810;50.860;19.226;2023-06-26T08:57:34;6.78;;;3.80;;
58017;SDS011;43810;50.860;19.226;2023-06-26T09:00:02;4.55;;;3.72;;
58017;SDS011;43810;50.860;19.226;2023-06-26T09:02:29;7.00;;;4.10;;
58017;SDS011;43810;50.860;19.226;2023-06-26T09:04:54;8.05;;;4.15;;
58017;SDS011;43810;50.860;19.226;2023-06-26T09:07:21;5.05;;;4.40;;
58017;SDS011;43810;50.860;19.226;2023-06-26T09:09:47;5.43;;;4.05;;
58017;SDS011;43810;50.860;19.226;2023-06-26T09:12:13;4.65;;;3.85;;
58017;SDS011;43810;50.860;19.226;2023-06-26T09:14:38;4.85;;;3.72;;
58017;SDS011;43810;50.860;19.226;2023-06-26T09:17:05;4.72;;;4.20;;
58017;SDS011;43810;50.860;19.226;2023-06-26T09:19:31;5.53;;;3.78;;
58017;SDS011;43810;50.860;19.226;2023-06-26T09:21:57;6.80;;;3.92;;
58017;SDS011;43810;50.860;19.226;2023-06-26T09:24:23;6.55;;;4.00;;
58017;SDS011;43810;50.860;19.226;2023-06-26T09:26:49;6.38;;;3.42;;
58017;SDS011;43810;50.860;19.226;2023-06-26T09:29:16;4.97;;;3.70;;
58017;SDS011;43810;50.860;19.226;2023-06-26T09:31:43;4.63;;;3.63;;
58017;SDS011;43810;50.860;19.226;2023-06-26T09:34:09;5.72;;;3.97;;
58017;SDS011;43810;50.860;19.226;2023-06-26T09:36:36;6.75;;;3.90;;
58017;SDS011;43810;50.860;19.226;2023-06-26T09:39:05;5.35;;;3.63;;
58017;SDS011;43810;50.860;19.226;2023-06-26T09:41:36;6.35;;;3.30;;
58017;SDS011;43810;50.860;19.226;2023-06-26T09:44:05;4.13;;;3.60;;
58017;SDS011;43810;50.860;19.226;2023-06-26T09:46:33;4.28;;;3.33;;
58017;SDS011;43810;50.860;19.226;2023-06-26T09:49:06;3.90;;;3.38;;
58017;SDS011;43810;50.860;19.226;2023-06-26T09:51:33;7.03;;;4.18;;
58017;SDS011;43810;50.860;19.226;2023-06-26T09:54:01;5.20;;;3.97;;
58017;SDS011;43810;50.860;19.226;2023-06-26T09:56:28;6.35;;;4.43;;
58017;SDS011;43810;50.860;19.226;2023-06-26T09:58:55;4.65;;;4.00;;
58017;SDS011;43810;50.860;19.226;2023-06-26T10:01:25;5.72;;;3.40;;
58017;SDS011;43810;50.860;19.226;2023-06-26T10:03:51;6.20;;;4.32;;
58017;SDS011;43810;50.860;19.226;2023-06-26T10:06:19;4.85;;;3.47;;
58017;SDS011;43810;50.860;19.226;2023-06-26T10:08:48;4.72;;;3.53;;
58017;SDS011;43810;50.860;19.226;2023-06-26T10:11:16;72.47;;;31.67;;
58017;SDS011;43810;50.860;19.226;2023-06-26T10:13:49;45.28;;;20.27;;
58017;SDS011;43810;50.860;19.226;2023-06-26T10:16:18;6.20;;;4.28;;
58017;SDS011;43810;50.860;19.226;2023-06-26T10:18:50;6.18;;;3.63;;
58017;SDS011;43810;50.860;19.226;2023-06-26T10:21:24;4.55;;;3.38;;
58017;SDS011;43810;50.860;19.226;2023-06-26T10:23:53;15.63;;;9.07;;
58017;SDS011;43810;50.860;19.226;2023-06-26T10:26:21;7.53;;;4.57;;
58017;SDS011;43810;50.860;19.226;2023-06-26T10:28:49;6.70;;;3.60;;
58017;SDS011;43810;50.860;19.226;2023-06-26T10:31:19;4.70;;;3.58;;
58017;SDS011;43810;50.860;19.226;2023-06-26T10:33:48;6.18;;;3.97;;
58017;SDS011;43810;50.860;19.226;2023-06-26T10:36:16;3.92;;;3.53;;
58017;SDS011;43810;50.860;19.226;2023-06-26T10:38:47;3.70;;;3.38;;
58017;SDS011;43810;50.860;19.226;2023-06-26T10:41:14;4.10;;;3.50;;
58017;SDS011;43810;50.860;19.226;2023-06-26T10:43:41;5.47;;;3.60;;
58017;SDS011;43810;50.860;19.226;2023-06-26T10:46:09;9.73;;;4.10;;
58017;SDS011;43810;50.860;19.226;2023-06-26T10:48:55;4.07;;;3.47;;
58017;SDS011;43810;50.860;19.226;2023-06-26T10:51:23;9.40;;;4.70;;
58017;SDS011;43810;50.860;19.226;2023-06-26T10:53:54;5.60;;;4.03;;
58017;SDS011;43810;50.860;19.226;2023-06-26T10:56:20;4.20;;;3.80;;
58017;SDS011;43810;50.860;19.226;2023-06-26T10:59:15;5.60;;;4.30;;
58017;SDS011;43810;50.860;19.226;2023-06-26T11:02:01;4.90;;;3.53;;
58017;SDS011;43810;50.860;19.226;2023-06-26T11:07:22;5.97;;;4.05;;
58017;SDS011;43810;50.860;19.226;2023-06-26T11:10:00;4.03;;;3.60;;
58017;SDS011;43810;50.860;19.226;2023-06-26T11:12:36;3.70;;;3.38;;
58017;SDS011;43810;50.860;19.226;2023-06-26T11:15:10;5.85;;;4.03;;
58017;SDS011;43810;50.860;19.226;2023-06-26T11:17:38;3.83;;;3.25;;
58017;SDS011;43810;50.860;19.226;2023-06-26T11:20:05;4.88;;;3.83;;
58017;SDS011;43810;50.860;19.226;2023-06-26T11:22:45;5.00;;;3.40;;
58017;SDS011;43810;50.860;19.226;2023-06-26T11:25:11;5.90;;;3.65;;
58017;SDS011;43810;50.860;19.226;2023-06-26T11:30:04;4.03;;;3.33;;
58017;SDS011;43810;50.860;19.226;2023-06-26T11:32:31;5.53;;;3.58;;
58017;SDS011;43810;50.860;19.226;2023-06-26T11:35:00;6.97;;;3.30;;
58017;SDS011;43810;50.860;19.226;2023-06-26T11:37:26;3.47;;;3.17;;
58017;SDS011;43810;50.860;19.226;2023-06-26T11:39:52;7.47;;;3.70;;
58017;SDS011;43810;50.860;19.226;2023-06-26T11:42:19;4.10;;;3.22;;
58017;SDS011;43810;50.860;19.226;2023-06-26T11:44:47;3.92;;;3.05;;
58017;SDS011;43810;50.860;19.226;2023-06-26T11:47:17;4.28;;;3.58;;
58017;SDS011;43810;50.860;19.226;2023-06-26T11:49:44;5.03;;;3.50;;
58017;SDS011;43810;50.860;19.226;2023-06-26T11:52:14;5.22;;;3.30;;
58017;SDS011;43810;50.860;19.226;2023-06-26T11:54:41;4.68;;;3.08;;
58017;SDS011;43810;50.860;19.226;2023-06-26T11:57:08;4.63;;;3.30;;
58017;SDS011;43810;50.860;19.226;2023-06-26T11:59:39;5.55;;;3.33;;
58017;SDS011;43810;50.860;19.226;2023-06-26T12:04:49;3.55;;;3.25;;
58017;SDS011;43810;50.860;19.226;2023-06-26T12:07:15;3.58;;;3.28;;
58017;SDS011;43810;50.860;19.226;2023-06-26T12:09:43;4.32;;;3.30;;
58017;SDS011;43810;50.860;19.226;2023-06-26T12:12:11;3.63;;;3.10;;
58017;SDS011;43810;50.860;19.226;2023-06-26T12:14:38;4.18;;;3.25;;
58017;SDS011;43810;50.860;19.226;2023-06-26T12:17:13;3.90;;;3.25;;
58017;SDS011;43810;50.860;19.226;2023-06-26T12:19:42;4.00;;;3.45;;
58017;SDS011;43810;50.860;19.226;2023-06-26T12:22:13;4.07;;;3.42;;
58017;SDS011;43810;50.860;19.226;2023-06-26T12:24:39;5.43;;;3.45;;
58017;SDS011;43810;50.860;19.226;2023-06-26T12:27:09;4.00;;;3.22;;
58017;SDS011;43810;50.860;19.226;2023-06-26T12:29:36;3.80;;;3.20;;
58017;SDS011;43810;50.860;19.226;2023-06-26T12:32:04;3.83;;;3.10;;
58017;SDS011;43810;50.860;19.226;2023-06-26T12:34:33;3.47;;;3.17;;
58017;SDS011;43810;50.860;19.226;2023-06-26T12:37:01;4.63;;;3.25;;
58017;SDS011;43810;50.860;19.226;2023-06-26T12:39:28;3.97;;;3.58;;
58017;SDS011;43810;50.860;19.226;2023-06-26T12:41:56;10.50;;;5.50;;
58017;SDS011;43810;50.860;19.226;2023-06-26T12:44:25;5.35;;;3.75;;
58017;SDS011;43810;50.860;19.226;2023-06-26T12:46:56;4.10;;;3.05;;
58017;SDS011;43810;50.860;19.226;2023-06-26T12:49:35;5.80;;;3.67;;
58017;SDS011;43810;50.860;19.226;2023-06-26T12:52:02;5.07;;;3.58;;
58017;SDS011;43810;50.860;19.226;2023-06-26T12:54:29;10.00;;;4.00;;
58017;SDS011;43810;50.860;19.226;2023-06-26T12:56:57;5.13;;;3.80;;
58017;SDS011;43810;50.860;19.226;2023-06-26T12:59:23;8.30;;;3.45;;
58017;SDS011;43810;50.860;19.226;2023-06-26T13:01:49;4.47;;;3.72;;
58017;SDS011;43810;50.860;19.226;2023-06-26T13:04:20;3.80;;;3.10;;
58017;SDS011;43810;50.860;19.226;2023-06-26T13:06:46;3.80;;;3.30;;
58017;SDS011;43810;50.860;19.226;2023-06-26T13:09:12;4.53;;;3.13;;
58017;SDS011;43810;50.860;19.226;2023-06-26T13:11:38;3.95;;;3.15;;
58017;SDS011;43810;50.860;19.226;2023-06-26T13:14:04;3.90;;;3.30;;
58017;SDS011;43810;50.860;19.226;2023-06-26T13:16:32;4.60;;;3.15;;
58017;SDS011;43810;50.860;19.226;2023-06-26T13:19:01;4.93;;;2.90;;
58017;SDS011;43810;50.860;19.226;2023-06-26T13:21:28;3.35;;;3.05;;
58017;SDS011;43810;50.860;19.226;2023-06-26T13:24:04;3.15;;;2.85;;
58017;SDS011;43810;50.860;19.226;2023-06-26T13:26:30;3.28;;;3.00;;
58017;SDS011;43810;50.860;19.226;2023-06-26T13:28:57;4.78;;;3.03;;
58017;SDS011;43810;50.860;19.226;2023-06-26T13:31:23;3.60;;;2.95;;
58017;SDS011;43810;50.860;19.226;2023-06-26T13:33:49;4.45;;;3.20;;
58017;SDS011;43810;50.860;19.226;2023-06-26T13:36:25;3.67;;;3.08;;
58017;SDS011;43810;50.860;19.226;2023-06-26T13:38:54;3.42;;;3.13;;
58017;SDS011;43810;50.860;19.226;2023-06-26T13:41:26;3.97;;;3.40;;
58017;SDS011;43810;50.860;19.226;2023-06-26T13:43:52;4.45;;;2.97;;
58017;SDS011;43810;50.860;19.226;2023-06-26T13:46:18;3.47;;;3.05;;
58017;SDS011;43810;50.860;19.226;2023-06-26T13:48:44;5.00;;;3.50;;
58017;SDS011;43810;50.860;19.226;2023-06-26T13:51:11;5.53;;;3.30;;
58017;SDS011;43810;50.860;19.226;2023-06-26T13:53:37;3.50;;;3.20;;
58017;SDS011;43810;50.860;19.226;2023-06-26T13:56:03;3.67;;;2.90;;
58017;SDS011;43810;50.860;19.226;2023-06-26T13:58:28;3.88;;;3.38;;
58017;SDS011;43810;50.860;19.226;2023-06-26T14:01:00;3.38;;;3.00;;
58017;SDS011;43810;50.860;19.226;2023-06-26T14:03:26;5.72;;;3.20;;
58017;SDS011;43810;50.860;19.226;2023-06-26T14:05:53;4.43;;;2.90;;
58017;SDS011;43810;50.860;19.226;2023-06-26T14:08:19;3.78;;;3.10;;
58017;SDS011;43810;50.860;19.226;2023-06-26T14:10:45;3.28;;;2.97;;
58017;SDS011;43810;50.860;19.226;2023-06-26T14:13:13;5.20;;;2.60;;
58017;SDS011;43810;50.860;19.226;2023-06-26T14:15:41;3.50;;;3.03;;
58017;SDS011;43810;50.860;19.226;2023-06-26T14:18:07;3.40;;;3.10;;
58017;SDS011;43810;50.860;19.226;2023-06-26T14:20:33;3.58;;;3.10;;
58017;SDS011;43810;50.860;19.226;2023-06-26T14:23:01;3.13;;;2.60;;
58017;SDS011;43810;50.860;19.226;2023-06-26T14:25:27;5.78;;;3.05;;
58017;SDS011;43810;50.860;19.226;2023-06-26T14:27:54;4.53;;;2.88;;
58017;SDS011;43810;50.860;19.226;2023-06-26T14:30:21;3.60;;;3.30;;
58017;SDS011;43810;50.860;19.226;2023-06-26T14:32:47;5.75;;;2.95;;
58017;SDS011;43810;50.860;19.226;2023-06-26T14:35:12;6.07;;;2.83;;
58017;SDS011;43810;50.860;19.226;2023-06-26T14:37:38;3.33;;;2.85;;
58017;SDS011;43810;50.860;19.226;2023-06-26T14:40:07;3.35;;;2.58;;
58017;SDS011;43810;50.860;19.226;2023-06-26T14:42:36;3.63;;;3.08;;
58017;SDS011;43810;50.860;19.226;2023-06-26T14:45:02;3.83;;;3.20;;
58017;SDS011;43810;50.860;19.226;2023-06-26T14:47:28;3.17;;;2.78;;